Pure Air, Missouri
Current Conditions -  °F | °C
As of 11:55 PM on Wednesday 22 Oct 2014 (Local Time) from KIRK Reporting Station
Clear Clear  
Wind Chill: 44°   Ceiling: Unl
Heat Index: 48°   Visibility: 10mi
Dew Point: 43°   Wind: 9mph
Humidity: 83%   Direction: 140°SE
Pressure: 30.18"   Gusts: NA
Location:  40.2969°N, 92.7524°W
Report Text: KIRK 230455Z AUTO 14008KT 10SM CLR 09/06 A3018 RMK AO2 SLP223 T00890061
Loading
Personal Weather Stations






























Interactive Weather Map
Tropical Storm Tracking
New forecast layout! Learn more

10-Day Weather Forecast

Advertisements
Track Severe Weather on mobile